sensor_id;sensor_type;location;lat;lon;timestamp;P1;durP1;ratioP1;P2;durP2;ratioP2
50355;SDS011;36264;51.296;-0.602;2023-04-26T00:01:17;7.63;;;2.10;;
50355;SDS011;36264;51.296;-0.602;2023-04-26T00:03:42;4.88;;;2.00;;
50355;SDS011;36264;51.296;-0.602;2023-04-26T00:06:08;6.28;;;2.10;;
50355;SDS011;36264;51.296;-0.602;2023-04-26T00:08:37;4.35;;;1.83;;
50355;SDS011;36264;51.296;-0.602;2023-04-26T00:11:03;4.97;;;2.20;;
50355;SDS011;36264;51.296;-0.602;2023-04-26T00:13:28;4.22;;;1.95;;
50355;SDS011;36264;51.296;-0.602;2023-04-26T00:15:53;6.95;;;2.40;;
50355;SDS011;36264;51.296;-0.602;2023-04-26T00:18:19;4.25;;;1.95;;
50355;SDS011;36264;51.296;-0.602;2023-04-26T00:20:44;4.97;;;2.22;;
50355;SDS011;36264;51.296;-0.602;2023-04-26T00:23:10;5.97;;;1.90;;
50355;SDS011;36264;51.296;-0.602;2023-04-26T00:25:36;4.28;;;2.00;;
50355;SDS011;36264;51.296;-0.602;2023-04-26T00:28:02;4.07;;;1.73;;
50355;SDS011;36264;51.296;-0.602;2023-04-26T00:30:27;3.00;;;1.70;;
50355;SDS011;36264;51.296;-0.602;2023-04-26T00:32:53;4.47;;;1.75;;
50355;SDS011;36264;51.296;-0.602;2023-04-26T00:35:18;4.55;;;1.92;;
50355;SDS011;36264;51.296;-0.602;2023-04-26T00:37:44;3.63;;;1.70;;
50355;SDS011;36264;51.296;-0.602;2023-04-26T00:40:10;3.70;;;2.08;;
50355;SDS011;36264;51.296;-0.602;2023-04-26T00:42:36;4.50;;;1.80;;
50355;SDS011;36264;51.296;-0.602;2023-04-26T00:45:03;3.70;;;1.98;;
50355;SDS011;36264;51.296;-0.602;2023-04-26T00:47:28;4.00;;;2.10;;
50355;SDS011;36264;51.296;-0.602;2023-04-26T00:49:54;4.93;;;1.83;;
50355;SDS011;36264;51.296;-0.602;2023-04-26T00:52:20;4.10;;;2.30;;
50355;SDS011;36264;51.296;-0.602;2023-04-26T00:54:47;3.00;;;1.77;;
50355;SDS011;36264;51.296;-0.602;2023-04-26T00:57:13;8.77;;;2.03;;
50355;SDS011;36264;51.296;-0.602;2023-04-26T00:59:39;3.97;;;1.80;;
50355;SDS011;36264;51.296;-0.602;2023-04-26T01:02:05;9.52;;;2.28;;
50355;SDS011;36264;51.296;-0.602;2023-04-26T01:04:31;4.00;;;1.92;;
50355;SDS011;36264;51.296;-0.602;2023-04-26T01:06:57;3.85;;;1.70;;
50355;SDS011;36264;51.296;-0.602;2023-04-26T01:09:24;3.97;;;2.50;;
50355;SDS011;36264;51.296;-0.602;2023-04-26T01:11:49;4.15;;;1.85;;
50355;SDS011;36264;51.296;-0.602;2023-04-26T01:14:17;4.38;;;2.00;;
50355;SDS011;36264;51.296;-0.602;2023-04-26T01:16:42;3.70;;;1.83;;
50355;SDS011;36264;51.296;-0.602;2023-04-26T01:19:10;5.05;;;1.95;;
50355;SDS011;36264;51.296;-0.602;2023-04-26T01:21:37;3.67;;;1.65;;
50355;SDS011;36264;51.296;-0.602;2023-04-26T01:24:03;6.18;;;1.60;;
50355;SDS011;36264;51.296;-0.602;2023-04-26T01:26:30;5.95;;;1.95;;
50355;SDS011;36264;51.296;-0.602;2023-04-26T01:28:56;4.57;;;1.80;;
50355;SDS011;36264;51.296;-0.602;2023-04-26T01:31:22;3.95;;;2.15;;
50355;SDS011;36264;51.296;-0.602;2023-04-26T01:33:47;4.32;;;1.95;;
50355;SDS011;36264;51.296;-0.602;2023-04-26T01:36:13;8.05;;;2.20;;
50355;SDS011;36264;51.296;-0.602;2023-04-26T01:38:38;7.22;;;2.25;;
50355;SDS011;36264;51.296;-0.602;2023-04-26T01:41:04;4.10;;;1.95;;
50355;SDS011;36264;51.296;-0.602;2023-04-26T01:43:29;4.78;;;2.30;;
50355;SDS011;36264;51.296;-0.602;2023-04-26T01:45:55;4.32;;;2.00;;
50355;SDS011;36264;51.296;-0.602;2023-04-26T01:48:20;5.13;;;1.88;;
50355;SDS011;36264;51.296;-0.602;2023-04-26T01:50:46;3.78;;;1.98;;
50355;SDS011;36264;51.296;-0.602;2023-04-26T01:53:11;4.47;;;2.00;;
50355;SDS011;36264;51.296;-0.602;2023-04-26T01:55:36;5.55;;;2.00;;
50355;SDS011;36264;51.296;-0.602;2023-04-26T01:58:02;5.25;;;2.08;;
50355;SDS011;36264;51.296;-0.602;2023-04-26T02:00:28;4.95;;;2.50;;
50355;SDS011;36264;51.296;-0.602;2023-04-26T02:02:54;8.57;;;2.80;;
50355;SDS011;36264;51.296;-0.602;2023-04-26T02:05:20;4.20;;;2.10;;
50355;SDS011;36264;51.296;-0.602;2023-04-26T02:07:46;5.60;;;2.03;;
50355;SDS011;36264;51.296;-0.602;2023-04-26T02:10:12;4.78;;;2.25;;
50355;SDS011;36264;51.296;-0.602;2023-04-26T02:12:37;4.43;;;2.20;;
50355;SDS011;36264;51.296;-0.602;2023-04-26T02:15:03;4.20;;;1.83;;
50355;SDS011;36264;51.296;-0.602;2023-04-26T02:17:30;6.30;;;2.05;;
50355;SDS011;36264;51.296;-0.602;2023-04-26T02:19:55;4.68;;;1.98;;
50355;SDS011;36264;51.296;-0.602;2023-04-26T02:22:22;5.03;;;2.60;;
50355;SDS011;36264;51.296;-0.602;2023-04-26T02:24:49;5.82;;;2.13;;
50355;SDS011;36264;51.296;-0.602;2023-04-26T02:27:14;5.82;;;2.42;;
50355;SDS011;36264;51.296;-0.602;2023-04-26T02:29:40;7.65;;;2.67;;
50355;SDS011;36264;51.296;-0.602;2023-04-26T02:32:06;4.88;;;2.00;;
50355;SDS011;36264;51.296;-0.602;2023-04-26T02:34:31;6.30;;;2.10;;
50355;SDS011;36264;51.296;-0.602;2023-04-26T02:36:57;5.45;;;2.15;;
50355;SDS011;36264;51.296;-0.602;2023-04-26T02:39:22;4.53;;;1.90;;
50355;SDS011;36264;51.296;-0.602;2023-04-26T02:41:48;4.10;;;2.00;;
50355;SDS011;36264;51.296;-0.602;2023-04-26T02:44:13;6.25;;;2.08;;
50355;SDS011;36264;51.296;-0.602;2023-04-26T02:46:39;8.15;;;2.47;;
50355;SDS011;36264;51.296;-0.602;2023-04-26T02:49:06;8.90;;;2.47;;
50355;SDS011;36264;51.296;-0.602;2023-04-26T02:51:31;4.03;;;2.00;;
50355;SDS011;36264;51.296;-0.602;2023-04-26T02:53:57;4.85;;;2.30;;
50355;SDS011;36264;51.296;-0.602;2023-04-26T02:56:23;4.60;;;2.25;;
50355;SDS011;36264;51.296;-0.602;2023-04-26T02:58:48;6.93;;;2.42;;
50355;SDS011;36264;51.296;-0.602;2023-04-26T03:01:14;4.43;;;2.35;;
50355;SDS011;36264;51.296;-0.602;2023-04-26T03:03:39;4.75;;;2.10;;
50355;SDS011;36264;51.296;-0.602;2023-04-26T03:06:05;5.40;;;2.30;;
50355;SDS011;36264;51.296;-0.602;2023-04-26T03:08:30;4.85;;;2.20;;
50355;SDS011;36264;51.296;-0.602;2023-04-26T03:10:56;4.72;;;2.10;;
50355;SDS011;36264;51.296;-0.602;2023-04-26T03:13:21;4.57;;;2.15;;
50355;SDS011;36264;51.296;-0.602;2023-04-26T03:15:48;6.78;;;2.30;;
50355;SDS011;36264;51.296;-0.602;2023-04-26T03:18:16;4.05;;;2.15;;
50355;SDS011;36264;51.296;-0.602;2023-04-26T03:20:41;3.90;;;2.00;;
50355;SDS011;36264;51.296;-0.602;2023-04-26T03:23:07;4.13;;;1.95;;
50355;SDS011;36264;51.296;-0.602;2023-04-26T03:25:32;4.88;;;2.00;;
50355;SDS011;36264;51.296;-0.602;2023-04-26T03:27:58;4.75;;;2.22;;
50355;SDS011;36264;51.296;-0.602;2023-04-26T03:30:23;4.10;;;2.20;;
50355;SDS011;36264;51.296;-0.602;2023-04-26T03:32:49;4.78;;;2.15;;
50355;SDS011;36264;51.296;-0.602;2023-04-26T03:35:16;4.18;;;1.90;;
50355;SDS011;36264;51.296;-0.602;2023-04-26T03:37:41;5.55;;;2.10;;
50355;SDS011;36264;51.296;-0.602;2023-04-26T03:40:07;3.92;;;2.08;;
50355;SDS011;36264;51.296;-0.602;2023-04-26T03:42:33;4.20;;;1.90;;
50355;SDS011;36264;51.296;-0.602;2023-04-26T03:45:00;4.15;;;2.13;;
50355;SDS011;36264;51.296;-0.602;2023-04-26T03:47:25;4.90;;;2.22;;
50355;SDS011;36264;51.296;-0.602;2023-04-26T03:49:51;4.00;;;1.90;;
50355;SDS011;36264;51.296;-0.602;2023-04-26T03:52:16;5.20;;;2.05;;
50355;SDS011;36264;51.296;-0.602;2023-04-26T03:54:42;4.80;;;2.00;;
50355;SDS011;36264;51.296;-0.602;2023-04-26T03:57:07;5.88;;;2.28;;
50355;SDS011;36264;51.296;-0.602;2023-04-26T03:59:32;6.25;;;2.63;;
50355;SDS011;36264;51.296;-0.602;2023-04-26T04:01:58;3.95;;;2.20;;
50355;SDS011;36264;51.296;-0.602;2023-04-26T04:04:23;4.68;;;2.08;;
50355;SDS011;36264;51.296;-0.602;2023-04-26T04:06:49;4.18;;;1.90;;
50355;SDS011;36264;51.296;-0.602;2023-04-26T04:09:14;3.90;;;1.92;;
50355;SDS011;36264;51.296;-0.602;2023-04-26T04:11:40;4.50;;;1.90;;
50355;SDS011;36264;51.296;-0.602;2023-04-26T04:14:05;4.00;;;2.00;;
50355;SDS011;36264;51.296;-0.602;2023-04-26T04:16:31;4.93;;;1.90;;
50355;SDS011;36264;51.296;-0.602;2023-04-26T04:18:56;4.25;;;1.80;;
50355;SDS011;36264;51.296;-0.602;2023-04-26T04:21:22;3.20;;;1.73;;
50355;SDS011;36264;51.296;-0.602;2023-04-26T04:23:48;3.42;;;1.77;;
50355;SDS011;36264;51.296;-0.602;2023-04-26T04:26:14;6.13;;;2.13;;
50355;SDS011;36264;51.296;-0.602;2023-04-26T04:28:40;3.63;;;1.88;;
50355;SDS011;36264;51.296;-0.602;2023-04-26T04:31:06;5.20;;;2.10;;
50355;SDS011;36264;51.296;-0.602;2023-04-26T04:33:35;5.22;;;1.90;;
50355;SDS011;36264;51.296;-0.602;2023-04-26T04:36:00;5.43;;;1.98;;
50355;SDS011;36264;51.296;-0.602;2023-04-26T04:38:26;5.18;;;2.05;;
50355;SDS011;36264;51.296;-0.602;2023-04-26T04:40:51;4.38;;;1.90;;
50355;SDS011;36264;51.296;-0.602;2023-04-26T04:43:17;3.53;;;1.70;;
50355;SDS011;36264;51.296;-0.602;2023-04-26T04:45:43;4.22;;;2.35;;
50355;SDS011;36264;51.296;-0.602;2023-04-26T04:48:08;4.78;;;2.00;;
50355;SDS011;36264;51.296;-0.602;2023-04-26T04:50:35;5.32;;;1.90;;
50355;SDS011;36264;51.296;-0.602;2023-04-26T04:53:02;3.50;;;1.73;;
50355;SDS011;36264;51.296;-0.602;2023-04-26T04:55:28;3.33;;;1.80;;
50355;SDS011;36264;51.296;-0.602;2023-04-26T04:57:53;5.00;;;1.90;;
50355;SDS011;36264;51.296;-0.602;2023-04-26T05:00:19;6.72;;;2.00;;
50355;SDS011;36264;51.296;-0.602;2023-04-26T05:02:45;5.80;;;1.83;;
50355;SDS011;36264;51.296;-0.602;2023-04-26T05:05:10;3.83;;;1.70;;
50355;SDS011;36264;51.296;-0.602;2023-04-26T05:07:36;3.78;;;1.80;;
50355;SDS011;36264;51.296;-0.602;2023-04-26T05:10:02;3.95;;;1.83;;
50355;SDS011;36264;51.296;-0.602;2023-04-26T05:12:28;4.35;;;1.80;;
50355;SDS011;36264;51.296;-0.602;2023-04-26T05:14:53;4.18;;;1.70;;
50355;SDS011;36264;51.296;-0.602;2023-04-26T05:17:19;4.32;;;1.60;;
50355;SDS011;36264;51.296;-0.602;2023-04-26T05:19:44;3.63;;;1.80;;
50355;SDS011;36264;51.296;-0.602;2023-04-26T05:22:10;4.10;;;1.73;;
50355;SDS011;36264;51.296;-0.602;2023-04-26T05:24:42;5.50;;;1.85;;
50355;SDS011;36264;51.296;-0.602;2023-04-26T05:27:08;3.20;;;1.60;;
50355;SDS011;36264;51.296;-0.602;2023-04-26T05:29:33;4.03;;;1.73;;
50355;SDS011;36264;51.296;-0.602;2023-04-26T05:31:58;3.05;;;1.60;;
50355;SDS011;36264;51.296;-0.602;2023-04-26T05:34:24;7.03;;;2.03;;
50355;SDS011;36264;51.296;-0.602;2023-04-26T05:36:49;3.63;;;1.70;;
50355;SDS011;36264;51.296;-0.602;2023-04-26T05:39:15;4.85;;;1.70;;
50355;SDS011;36264;51.296;-0.602;2023-04-26T05:41:41;4.43;;;2.30;;
50355;SDS011;36264;51.296;-0.602;2023-04-26T05:44:07;5.57;;;1.90;;
50355;SDS011;36264;51.296;-0.602;2023-04-26T05:46:32;5.22;;;1.73;;
50355;SDS011;36264;51.296;-0.602;2023-04-26T05:48:57;7.20;;;1.85;;
50355;SDS011;36264;51.296;-0.602;2023-04-26T05:51:23;4.28;;;1.85;;
50355;SDS011;36264;51.296;-0.602;2023-04-26T05:53:48;4.78;;;1.88;;
50355;SDS011;36264;51.296;-0.602;2023-04-26T05:56:13;3.47;;;1.80;;
50355;SDS011;36264;51.296;-0.602;2023-04-26T05:58:39;4.45;;;2.08;;
50355;SDS011;36264;51.296;-0.602;2023-04-26T06:01:04;4.03;;;1.63;;
50355;SDS011;36264;51.296;-0.602;2023-04-26T06:03:30;3.58;;;1.58;;
50355;SDS011;36264;51.296;-0.602;2023-04-26T06:05:55;5.65;;;2.35;;
50355;SDS011;36264;51.296;-0.602;2023-04-26T06:08:21;5.03;;;1.73;;
50355;SDS011;36264;51.296;-0.602;2023-04-26T06:10:46;5.28;;;1.92;;
50355;SDS011;36264;51.296;-0.602;2023-04-26T06:13:11;5.82;;;1.95;;
50355;SDS011;36264;51.296;-0.602;2023-04-26T06:15:37;5.50;;;2.00;;
50355;SDS011;36264;51.296;-0.602;2023-04-26T06:18:03;4.00;;;1.75;;
50355;SDS011;36264;51.296;-0.602;2023-04-26T06:20:29;3.33;;;1.80;;
50355;SDS011;36264;51.296;-0.602;2023-04-26T06:22:54;6.90;;;1.80;;
50355;SDS011;36264;51.296;-0.602;2023-04-26T06:25:19;3.65;;;1.90;;
50355;SDS011;36264;51.296;-0.602;2023-04-26T06:27:45;4.30;;;1.80;;
50355;SDS011;36264;51.296;-0.602;2023-04-26T06:30:10;3.58;;;1.70;;
50355;SDS011;36264;51.296;-0.602;2023-04-26T06:32:37;3.25;;;1.52;;
50355;SDS011;36264;51.296;-0.602;2023-04-26T06:35:04;3.17;;;1.60;;
50355;SDS011;36264;51.296;-0.602;2023-04-26T06:37:30;6.43;;;2.00;;
50355;SDS011;36264;51.296;-0.602;2023-04-26T06:39:55;6.75;;;2.10;;
50355;SDS011;36264;51.296;-0.602;2023-04-26T06:42:21;6.68;;;1.80;;
50355;SDS011;36264;51.296;-0.602;2023-04-26T06:44:46;6.38;;;2.00;;
50355;SDS011;36264;51.296;-0.602;2023-04-26T06:47:11;4.72;;;1.90;;
50355;SDS011;36264;51.296;-0.602;2023-04-26T06:49:37;5.85;;;1.90;;
50355;SDS011;36264;51.296;-0.602;2023-04-26T06:52:02;6.65;;;1.70;;
50355;SDS011;36264;51.296;-0.602;2023-04-26T06:54:28;5.10;;;2.08;;
50355;SDS011;36264;51.296;-0.602;2023-04-26T06:56:54;3.28;;;1.90;;
50355;SDS011;36264;51.296;-0.602;2023-04-26T06:59:20;4.90;;;1.98;;
50355;SDS011;36264;51.296;-0.602;2023-04-26T07:01:45;4.13;;;1.85;;
50355;SDS011;36264;51.296;-0.602;2023-04-26T07:04:11;5.07;;;1.90;;
50355;SDS011;36264;51.296;-0.602;2023-04-26T07:06:36;3.80;;;1.70;;
50355;SDS011;36264;51.296;-0.602;2023-04-26T07:09:03;6.85;;;1.73;;
50355;SDS011;36264;51.296;-0.602;2023-04-26T07:11:29;5.70;;;1.80;;
50355;SDS011;36264;51.296;-0.602;2023-04-26T07:13:55;5.90;;;2.47;;
50355;SDS011;36264;51.296;-0.602;2023-04-26T07:16:20;6.72;;;2.63;;
50355;SDS011;36264;51.296;-0.602;2023-04-26T07:18:46;6.93;;;1.70;;
50355;SDS011;36264;51.296;-0.602;2023-04-26T07:21:12;5.00;;;1.60;;
50355;SDS011;36264;51.296;-0.602;2023-04-26T07:23:38;3.85;;;1.65;;
50355;SDS011;36264;51.296;-0.602;2023-04-26T07:26:03;5.03;;;1.63;;
50355;SDS011;36264;51.296;-0.602;2023-04-26T07:28:31;6.75;;;1.88;;
50355;SDS011;36264;51.296;-0.602;2023-04-26T07:30:57;5.93;;;1.80;;
50355;SDS011;36264;51.296;-0.602;2023-04-26T07:33:24;5.10;;;1.95;;
50355;SDS011;36264;51.296;-0.602;2023-04-26T07:35:56;6.07;;;2.00;;
50355;SDS011;36264;51.296;-0.602;2023-04-26T07:38:23;5.80;;;1.90;;
50355;SDS011;36264;51.296;-0.602;2023-04-26T07:40:49;4.10;;;1.60;;
50355;SDS011;36264;51.296;-0.602;2023-04-26T07:43:15;5.68;;;1.83;;
50355;SDS011;36264;51.296;-0.602;2023-04-26T07:45:41;5.78;;;1.80;;
50355;SDS011;36264;51.296;-0.602;2023-04-26T07:48:07;5.97;;;2.00;;
50355;SDS011;36264;51.296;-0.602;2023-04-26T07:50:32;4.78;;;1.80;;
50355;SDS011;36264;51.296;-0.602;2023-04-26T07:52:58;5.57;;;1.90;;
50355;SDS011;36264;51.296;-0.602;2023-04-26T07:55:23;4.18;;;1.70;;
50355;SDS011;36264;51.296;-0.602;2023-04-26T07:57:49;6.70;;;1.80;;
50355;SDS011;36264;51.296;-0.602;2023-04-26T08:00:15;4.82;;;1.80;;
50355;SDS011;36264;51.296;-0.602;2023-04-26T08:02:41;5.32;;;1.85;;
50355;SDS011;36264;51.296;-0.602;2023-04-26T08:05:06;4.70;;;1.80;;
50355;SDS011;36264;51.296;-0.602;2023-04-26T08:07:32;5.20;;;1.98;;
50355;SDS011;36264;51.296;-0.602;2023-04-26T08:09:58;4.13;;;1.83;;
50355;SDS011;36264;51.296;-0.602;2023-04-26T08:12:24;4.38;;;1.80;;
50355;SDS011;36264;51.296;-0.602;2023-04-26T08:14:49;4.38;;;1.70;;
50355;SDS011;36264;51.296;-0.602;2023-04-26T08:17:15;4.38;;;1.80;;
50355;SDS011;36264;51.296;-0.602;2023-04-26T08:19:40;6.20;;;1.80;;
50355;SDS011;36264;51.296;-0.602;2023-04-26T08:22:05;4.60;;;1.80;;
50355;SDS011;36264;51.296;-0.602;2023-04-26T08:24:31;5.53;;;1.70;;
50355;SDS011;36264;51.296;-0.602;2023-04-26T08:26:57;3.95;;;1.90;;
50355;SDS011;36264;51.296;-0.602;2023-04-26T08:29:25;5.53;;;2.00;;
50355;SDS011;36264;51.296;-0.602;2023-04-26T08:31:51;6.47;;;2.00;;
50355;SDS011;36264;51.296;-0.602;2023-04-26T08:34:17;7.93;;;1.90;;
50355;SDS011;36264;51.296;-0.602;2023-04-26T08:36:42;3.53;;;1.50;;
50355;SDS011;36264;51.296;-0.602;2023-04-26T08:39:09;4.78;;;1.75;;
50355;SDS011;36264;51.296;-0.602;2023-04-26T08:41:44;4.45;;;1.77;;
50355;SDS011;36264;51.296;-0.602;2023-04-26T08:44:14;5.45;;;1.70;;
50355;SDS011;36264;51.296;-0.602;2023-04-26T08:46:43;5.70;;;2.03;;
50355;SDS011;36264;51.296;-0.602;2023-04-26T08:51:51;5.20;;;1.92;;
50355;SDS011;36264;51.296;-0.602;2023-04-26T08:54:18;3.55;;;1.80;;
50355;SDS011;36264;51.296;-0.602;2023-04-26T08:56:44;7.78;;;2.25;;
50355;SDS011;36264;51.296;-0.602;2023-04-26T08:59:11;5.28;;;2.05;;
50355;SDS011;36264;51.296;-0.602;2023-04-26T09:01:40;5.18;;;2.00;;
50355;SDS011;36264;51.296;-0.602;2023-04-26T09:04:07;5.50;;;2.17;;
50355;SDS011;36264;51.296;-0.602;2023-04-26T09:06:33;3.15;;;1.65;;
50355;SDS011;36264;51.296;-0.602;2023-04-26T09:09:00;7.07;;;1.80;;
50355;SDS011;36264;51.296;-0.602;2023-04-26T09:11:50;4.72;;;1.90;;
50355;SDS011;36264;51.296;-0.602;2023-04-26T09:14:16;4.63;;;1.90;;
50355;SDS011;36264;51.296;-0.602;2023-04-26T09:16:42;5.25;;;2.00;;
50355;SDS011;36264;51.296;-0.602;2023-04-26T09:19:07;4.05;;;1.67;;
50355;SDS011;36264;51.296;-0.602;2023-04-26T09:21:32;5.40;;;1.90;;
50355;SDS011;36264;51.296;-0.602;2023-04-26T09:23:59;6.32;;;2.08;;
50355;SDS011;36264;51.296;-0.602;2023-04-26T09:26:28;4.63;;;1.83;;
50355;SDS011;36264;51.296;-0.602;2023-04-26T09:31:41;3.97;;;1.80;;
50355;SDS011;36264;51.296;-0.602;2023-04-26T09:34:11;4.07;;;1.98;;
50355;SDS011;36264;51.296;-0.602;2023-04-26T09:36:51;3.83;;;1.67;;
50355;SDS011;36264;51.296;-0.602;2023-04-26T09:39:28;5.18;;;1.80;;
50355;SDS011;36264;51.296;-0.602;2023-04-26T09:41:57;3.35;;;1.85;;
50355;SDS011;36264;51.296;-0.602;2023-04-26T09:44:23;5.63;;;1.90;;
50355;SDS011;36264;51.296;-0.602;2023-04-26T09:46:59;5.50;;;1.85;;
50355;SDS011;36264;51.296;-0.602;2023-04-26T09:49:42;5.05;;;2.53;;
50355;SDS011;36264;51.296;-0.602;2023-04-26T09:52:10;4.45;;;1.80;;
50355;SDS011;36264;51.296;-0.602;2023-04-26T09:54:37;6.35;;;2.00;;
50355;SDS011;36264;51.296;-0.602;2023-04-26T09:57:05;5.43;;;1.80;;
50355;SDS011;36264;51.296;-0.602;2023-04-26T09:59:41;3.28;;;1.70;;
50355;SDS011;36264;51.296;-0.602;2023-04-26T10:02:13;3.60;;;2.00;;
50355;SDS011;36264;51.296;-0.602;2023-04-26T10:04:41;3.63;;;1.92;;
50355;SDS011;36264;51.296;-0.602;2023-04-26T10:07:10;4.05;;;1.80;;
50355;SDS011;36264;51.296;-0.602;2023-04-26T10:09:36;6.60;;;1.90;;
50355;SDS011;36264;51.296;-0.602;2023-04-26T10:12:02;5.30;;;1.88;;
50355;SDS011;36264;51.296;-0.602;2023-04-26T10:14:28;8.48;;;2.15;;
50355;SDS011;36264;51.296;-0.602;2023-04-26T10:16:54;6.60;;;1.92;;
50355;SDS011;36264;51.296;-0.602;2023-04-26T10:19:22;6.50;;;2.30;;
50355;SDS011;36264;51.296;-0.602;2023-04-26T10:21:47;7.45;;;1.90;;
50355;SDS011;36264;51.296;-0.602;2023-04-26T10:24:15;6.45;;;1.80;;
50355;SDS011;36264;51.296;-0.602;2023-04-26T10:29:13;6.78;;;1.90;;
50355;SDS011;36264;51.296;-0.602;2023-04-26T10:34:26;3.75;;;1.80;;
50355;SDS011;36264;51.296;-0.602;2023-04-26T10:37:09;5.97;;;2.00;;
50355;SDS011;36264;51.296;-0.602;2023-04-26T10:39:36;6.45;;;1.95;;
50355;SDS011;36264;51.296;-0.602;2023-04-26T10:44:50;3.42;;;1.80;;
50355;SDS011;36264;51.296;-0.602;2023-04-26T10:47:27;3.67;;;2.05;;
50355;SDS011;36264;51.296;-0.602;2023-04-26T10:50:00;6.55;;;1.95;;
50355;SDS011;36264;51.296;-0.602;2023-04-26T10:52:31;4.95;;;1.80;;
50355;SDS011;36264;51.296;-0.602;2023-04-26T10:54:57;5.93;;;1.90;;
50355;SDS011;36264;51.296;-0.602;2023-04-26T10:58:24;10.35;;;2.45;;
50355;SDS011;36264;51.296;-0.602;2023-04-26T11:00:16;8.40;;;2.00;;
50355;SDS011;36264;51.296;-0.602;2023-04-26T11:02:45;4.15;;;1.88;;
50355;SDS011;36264;51.296;-0.602;2023-04-26T11:08:02;4.50;;;2.10;;
50355;SDS011;36264;51.296;-0.602;2023-04-26T11:10:50;5.20;;;2.00;;
50355;SDS011;36264;51.296;-0.602;2023-04-26T11:13:17;6.03;;;2.00;;
50355;SDS011;36264;51.296;-0.602;2023-04-26T11:15:43;4.47;;;2.05;;
50355;SDS011;36264;51.296;-0.602;2023-04-26T11:18:10;5.30;;;1.90;;
50355;SDS011;36264;51.296;-0.602;2023-04-26T11:20:35;6.95;;;2.10;;
50355;SDS011;36264;51.296;-0.602;2023-04-26T11:23:01;4.68;;;1.60;;
50355;SDS011;36264;51.296;-0.602;2023-04-26T11:25:27;5.27;;;1.80;;
50355;SDS011;36264;51.296;-0.602;2023-04-26T11:27:59;18.60;;;7.65;;
50355;SDS011;36264;51.296;-0.602;2023-04-26T11:30:29;11.48;;;4.85;;
50355;SDS011;36264;51.296;-0.602;2023-04-26T11:32:56;10.10;;;4.18;;
50355;SDS011;36264;51.296;-0.602;2023-04-26T11:35:26;10.35;;;4.68;;
50355;SDS011;36264;51.296;-0.602;2023-04-26T11:37:55;9.05;;;4.28;;
50355;SDS011;36264;51.296;-0.602;2023-04-26T11:40:22;13.95;;;5.55;;
50355;SDS011;36264;51.296;-0.602;2023-04-26T11:42:52;16.52;;;6.80;;
50355;SDS011;36264;51.296;-0.602;2023-04-26T11:45:17;32.92;;;11.10;;
50355;SDS011;36264;51.296;-0.602;2023-04-26T11:47:43;14.65;;;5.28;;
50355;SDS011;36264;51.296;-0.602;2023-04-26T11:50:10;25.63;;;9.70;;
50355;SDS011;36264;51.296;-0.602;2023-04-26T11:52:36;19.75;;;8.48;;
50355;SDS011;36264;51.296;-0.602;2023-04-26T11:55:05;14.50;;;5.72;;
50355;SDS011;36264;51.296;-0.602;2023-04-26T11:57:31;18.83;;;7.35;;
50355;SDS011;36264;51.296;-0.602;2023-04-26T12:00:10;18.48;;;6.32;;
50355;SDS011;36264;51.296;-0.602;2023-04-26T12:02:46;11.38;;;4.82;;
50355;SDS011;36264;51.296;-0.602;2023-04-26T12:05:25;9.93;;;3.95;;
50355;SDS011;36264;51.296;-0.602;2023-04-26T12:07:55;9.82;;;4.07;;
50355;SDS011;36264;51.296;-0.602;2023-04-26T12:10:25;8.30;;;3.70;;
50355;SDS011;36264;51.296;-0.602;2023-04-26T12:12:53;7.72;;;3.72;;
50355;SDS011;36264;51.296;-0.602;2023-04-26T12:15:22;8.15;;;3.15;;
50355;SDS011;36264;51.296;-0.602;2023-04-26T12:18:26;8.30;;;3.20;;
50355;SDS011;36264;51.296;-0.602;2023-04-26T12:20:40;8.80;;;2.35;;
50355;SDS011;36264;51.296;-0.602;2023-04-26T12:23:07;8.80;;;3.00;;
50355;SDS011;36264;51.296;-0.602;2023-04-26T12:25:38;8.02;;;2.60;;
50355;SDS011;36264;51.296;-0.602;2023-04-26T12:28:05;6.20;;;2.58;;
50355;SDS011;36264;51.296;-0.602;2023-04-26T12:30:36;7.65;;;2.55;;
50355;SDS011;36264;51.296;-0.602;2023-04-26T12:33:02;4.40;;;2.25;;
50355;SDS011;36264;51.296;-0.602;2023-04-26T12:35:29;6.47;;;2.17;;
50355;SDS011;36264;51.296;-0.602;2023-04-26T12:37:54;6.35;;;2.50;;
50355;SDS011;36264;51.296;-0.602;2023-04-26T12:40:21;6.00;;;2.20;;
50355;SDS011;36264;51.296;-0.602;2023-04-26T12:42:48;10.95;;;3.95;;
50355;SDS011;36264;51.296;-0.602;2023-04-26T12:45:14;10.25;;;3.08;;
50355;SDS011;36264;51.296;-0.602;2023-04-26T12:47:40;10.23;;;4.50;;
50355;SDS011;36264;51.296;-0.602;2023-04-26T12:50:05;5.38;;;2.78;;
50355;SDS011;36264;51.296;-0.602;2023-04-26T12:52:31;6.70;;;2.50;;
50355;SDS011;36264;51.296;-0.602;2023-04-26T12:54:57;13.43;;;5.20;;
50355;SDS011;36264;51.296;-0.602;2023-04-26T12:57:23;8.75;;;3.60;;
50355;SDS011;36264;51.296;-0.602;2023-04-26T12:59:48;5.82;;;2.78;;
50355;SDS011;36264;51.296;-0.602;2023-04-26T13:02:14;7.40;;;2.58;;
50355;SDS011;36264;51.296;-0.602;2023-04-26T13:04:39;8.43;;;3.50;;
50355;SDS011;36264;51.296;-0.602;2023-04-26T13:07:05;7.15;;;2.90;;
50355;SDS011;36264;51.296;-0.602;2023-04-26T13:09:30;7.70;;;2.50;;
50355;SDS011;36264;51.296;-0.602;2023-04-26T13:11:55;7.93;;;2.78;;
50355;SDS011;36264;51.296;-0.602;2023-04-26T13:14:21;4.57;;;2.00;;
50355;SDS011;36264;51.296;-0.602;2023-04-26T13:16:47;6.20;;;2.40;;
50355;SDS011;36264;51.296;-0.602;2023-04-26T13:19:13;6.18;;;2.45;;
50355;SDS011;36264;51.296;-0.602;2023-04-26T13:21:39;8.55;;;2.55;;
50355;SDS011;36264;51.296;-0.602;2023-04-26T13:24:06;6.82;;;2.38;;
50355;SDS011;36264;51.296;-0.602;2023-04-26T13:26:31;7.53;;;2.70;;
50355;SDS011;36264;51.296;-0.602;2023-04-26T13:28:56;5.32;;;2.25;;
50355;SDS011;36264;51.296;-0.602;2023-04-26T13:31:22;14.88;;;3.53;;
50355;SDS011;36264;51.296;-0.602;2023-04-26T13:33:48;4.35;;;2.35;;
50355;SDS011;36264;51.296;-0.602;2023-04-26T13:36:14;5.45;;;2.42;;
50355;SDS011;36264;51.296;-0.602;2023-04-26T13:38:41;4.90;;;2.35;;
50355;SDS011;36264;51.296;-0.602;2023-04-26T13:41:07;6.57;;;2.45;;
50355;SDS011;36264;51.296;-0.602;2023-04-26T13:43:33;5.75;;;2.47;;
50355;SDS011;36264;51.296;-0.602;2023-04-26T13:45:59;7.47;;;2.58;;
50355;SDS011;36264;51.296;-0.602;2023-04-26T13:48:25;7.57;;;2.40;;
50355;SDS011;36264;51.296;-0.602;2023-04-26T13:50:51;6.05;;;2.30;;
50355;SDS011;36264;51.296;-0.602;2023-04-26T13:53:16;5.05;;;2.70;;
50355;SDS011;36264;51.296;-0.602;2023-04-26T13:55:43;6.18;;;2.60;;
50355;SDS011;36264;51.296;-0.602;2023-04-26T13:58:09;5.13;;;2.35;;
50355;SDS011;36264;51.296;-0.602;2023-04-26T14:00:35;5.80;;;2.95;;
50355;SDS011;36264;51.296;-0.602;2023-04-26T14:03:00;6.95;;;3.15;;
50355;SDS011;36264;51.296;-0.602;2023-04-26T14:05:25;8.05;;;3.35;;
50355;SDS011;36264;51.296;-0.602;2023-04-26T14:07:51;24.13;;;10.43;;
50355;SDS011;36264;51.296;-0.602;2023-04-26T14:10:16;14.70;;;5.50;;
50355;SDS011;36264;51.296;-0.602;2023-04-26T14:12:42;9.52;;;4.53;;
50355;SDS011;36264;51.296;-0.602;2023-04-26T14:15:07;10.60;;;3.83;;
50355;SDS011;36264;51.296;-0.602;2023-04-26T14:17:33;8.40;;;3.55;;
50355;SDS011;36264;51.296;-0.602;2023-04-26T14:19:58;8.00;;;3.60;;
50355;SDS011;36264;51.296;-0.602;2023-04-26T14:22:25;7.50;;;3.50;;
50355;SDS011;36264;51.296;-0.602;2023-04-26T14:24:50;9.68;;;3.15;;
50355;SDS011;36264;51.296;-0.602;2023-04-26T14:27:16;9.38;;;2.80;;
50355;SDS011;36264;51.296;-0.602;2023-04-26T14:29:42;9.65;;;3.30;;
50355;SDS011;36264;51.296;-0.602;2023-04-26T14:32:07;7.15;;;2.85;;
50355;SDS011;36264;51.296;-0.602;2023-04-26T14:34:33;7.63;;;2.88;;
50355;SDS011;36264;51.296;-0.602;2023-04-26T14:37:03;7.70;;;2.72;;
50355;SDS011;36264;51.296;-0.602;2023-04-26T14:39:31;7.35;;;2.80;;
50355;SDS011;36264;51.296;-0.602;2023-04-26T14:41:57;6.88;;;3.08;;
50355;SDS011;36264;51.296;-0.602;2023-04-26T14:44:22;5.47;;;2.63;;
50355;SDS011;36264;51.296;-0.602;2023-04-26T14:46:48;8.93;;;3.38;;